PWSweather.com
Personal Weather Stations
Station Observations
MADWEATHER
MadeiraPT

MadeiraPT

Lat: 32.735, Lon: -17.194

Elevation: 1063

Station Type: Davis VantagePro2

Latest ConditionsUpdated 11:00:01 AM GMT Thursday, Nov 23, 2017
Currently Today's Max Today's Min Today's Average
Temperature 63.9°F17.7°C 64.2°F17.9°C 59.5°F15.3°C 61.2°F16.2°C
Dew Point 60.9°F16.1°C 60.9°F16.1°C 52.2°F11.2°C 55.8°F13.2°C
Winds 7.2 mph SE11.6 kmh SE 8.1 mph ESE13.0 kmh ESE - 3.1 mph 5.0 kmh
Wind Gusts 10.0 mph16.1 kmh 13.0 mph20.9 kmh - -
Humidity 90% 91% 74% 83%
Pressure 29.95 in1014.2 mb 29.95 in1014.2 mb 29.86 in1011.2 mb -
Precipitation - 0.02 in0.5 mm - -
Hour Temp Dew Point Humidity Winds Wind Gusts Pressure Precip Precip Rate Daily Precip Total
11:00 AM 63.9°F17.7°C 60.9°F16.1°C 90% 7.2 mph SE11.6 kmh SE 10.0 mph16.1 kmh 29.95 in1014.2 mb - 0.00 in0.0 mm 0.02 in0.5 mm
10:50 AM 61.8°F16.6°C 59.1°F15.1°C 91% 5.5 mph SSE8.9 kmh SSE 11.0 mph17.7 kmh 29.95 in1014.2 mb - 0.00 in0.0 mm 0.02 in0.5 mm
10:40 AM 61.7°F16.5°C 59.0°F15.0°C 91% 8.1 mph ESE13.0 kmh ESE 13.0 mph20.9 kmh 29.95 in1014.2 mb - 0.00 in0.0 mm 0.02 in0.5 mm
10:30 AM 62.0°F16.7°C 59.3°F15.2°C 91% 5.1 mph ESE8.2 kmh ESE 10.0 mph16.1 kmh 29.95 in1014.2 mb - 0.00 in0.0 mm 0.02 in0.5 mm
10:20 AM 62.5°F16.9°C 58.9°F14.9°C 88% 6.7 mph ESE10.8 kmh ESE 9.0 mph14.5 kmh 29.95 in1014.2 mb - 0.02 in0.5 mm 0.02 in0.5 mm
10:10 AM 63.4°F17.4°C 58.2°F14.6°C 83% 3.1 mph S5.0 kmh S 5.0 mph8.0 kmh 29.95 in1014.2 mb - 0.01 in0.3 mm 0.01 in0.3 mm
10:00 AM 64.2°F17.9°C 56.1°F13.4°C 75% 4.0 mph NNE6.4 kmh NNE 6.0 mph9.7 kmh 29.93 in1013.5 mb - 0.00 in0.0 mm 0.00 in0.0 mm
09:50 AM 64.1°F17.8°C 56.0°F13.3°C 75% 3.2 mph NNE5.1 kmh NNE 6.0 mph9.7 kmh 29.92 in1013.2 mb - 0.00 in0.0 mm 0.00 in0.0 mm
09:40 AM 64.0°F17.8°C 55.9°F13.3°C 75% 3.0 mph NNE4.8 kmh NNE 4.0 mph6.4 kmh 29.92 in1013.2 mb - 0.00 in0.0 mm 0.00 in0.0 mm
09:30 AM 63.9°F17.7°C 55.8°F13.2°C 75% 2.2 mph NNE3.5 kmh NNE 4.0 mph6.4 kmh 29.92 in1013.2 mb - 0.00 in0.0 mm 0.00 in0.0 mm
09:20 AM 63.6°F17.6°C 55.5°F13.1°C 75% 3.9 mph NNE6.3 kmh NNE 7.0 mph11.3 kmh 29.91 in1012.9 mb - 0.00 in0.0 mm 0.00 in0.0 mm
09:10 AM 63.3°F17.4°C 56.3°F13.5°C 78% 1.1 mph NNE1.8 kmh NNE 3.0 mph4.8 kmh 29.91 in1012.9 mb - 0.00 in0.0 mm 0.00 in0.0 mm
09:00 AM 63.1°F17.3°C 56.5°F13.6°C 79% 3.0 mph NNE4.8 kmh NNE 4.0 mph6.4 kmh 29.91 in1012.9 mb - 0.00 in0.0 mm 0.00 in0.0 mm
08:50 AM 62.9°F17.2°C 56.6°F13.7°C 80% 3.3 mph NNE5.3 kmh NNE 3.0 mph4.8 kmh 29.90 in1012.5 mb - 0.00 in0.0 mm 0.00 in0.0 mm
08:40 AM 62.5°F16.9°C 56.9°F13.8°C 82% 2.6 mph NNE4.2 kmh NNE 5.0 mph8.0 kmh 29.90 in1012.5 mb - 0.00 in0.0 mm 0.00 in0.0 mm
08:30 AM 62.1°F16.7°C 56.9°F13.8°C 83% 4.6 mph NNE7.4 kmh NNE 10.0 mph16.1 kmh 29.90 in1012.5 mb - 0.00 in0.0 mm 0.00 in0.0 mm
08:20 AM 61.7°F16.5°C 56.8°F13.8°C 84% 3.6 mph NNE5.8 kmh NNE 7.0 mph11.3 kmh 29.89 in1012.2 mb - 0.00 in0.0 mm 0.00 in0.0 mm
08:10 AM 61.3°F16.3°C 56.8°F13.8°C 85% 4.4 mph NNE7.1 kmh NNE 6.0 mph9.7 kmh 29.89 in1012.2 mb - 0.00 in0.0 mm 0.00 in0.0 mm
08:00 AM 61.0°F16.1°C 56.8°F13.8°C 86% 4.5 mph NNW7.2 kmh NNW 6.0 mph9.7 kmh 29.88 in1011.9 mb - 0.00 in0.0 mm 0.00 in0.0 mm
07:50 AM 60.9°F16.1°C 56.7°F13.7°C 86% 4.6 mph NNW7.4 kmh NNW 5.0 mph8.0 kmh 29.88 in1011.9 mb - 0.00 in0.0 mm 0.00 in0.0 mm
07:40 AM 60.9°F16.1°C 56.7°F13.7°C 86% 3.6 mph NNW5.8 kmh NNW 4.0 mph6.4 kmh 29.88 in1011.9 mb - 0.00 in0.0 mm 0.00 in0.0 mm
07:30 AM 61.1°F16.2°C 56.9°F13.8°C 86% 3.0 mph NNW4.8 kmh NNW 5.0 mph8.0 kmh 29.88 in1011.9 mb - 0.00 in0.0 mm 0.00 in0.0 mm
07:20 AM 61.1°F16.2°C 56.6°F13.7°C 85% 3.4 mph NNW5.5 kmh NNW 5.0 mph8.0 kmh 29.88 in1011.9 mb - 0.00 in0.0 mm 0.00 in0.0 mm
07:10 AM 61.3°F16.3°C 56.8°F13.8°C 85% 2.2 mph NNW3.5 kmh NNW 3.0 mph4.8 kmh 29.88 in1011.9 mb - 0.00 in0.0 mm 0.00 in0.0 mm
07:00 AM 61.4°F16.3°C 56.8°F13.8°C 85% 1.2 mph NNW1.9 kmh NNW 3.0 mph4.8 kmh 29.88 in1011.9 mb - 0.00 in0.0 mm 0.00 in0.0 mm
06:50 AM 61.3°F16.3°C 56.8°F13.8°C 85% 1.7 mph NNW2.7 kmh NNW 3.0 mph4.8 kmh 29.88 in1011.9 mb - 0.00 in0.0 mm 0.00 in0.0 mm
06:40 AM 61.1°F16.2°C 56.9°F13.8°C 86% 1.9 mph NNW3.1 kmh NNW 3.0 mph4.8 kmh 29.87 in1011.5 mb - 0.00 in0.0 mm 0.00 in0.0 mm
06:30 AM 61.0°F16.1°C 56.4°F13.6°C 85% 2.0 mph NNW3.2 kmh NNW 3.0 mph4.8 kmh 29.87 in1011.5 mb - 0.00 in0.0 mm 0.00 in0.0 mm
06:20 AM 60.9°F16.1°C 56.4°F13.6°C 85% 2.8 mph NNW4.5 kmh NNW 5.0 mph8.0 kmh 29.87 in1011.5 mb - 0.00 in0.0 mm 0.00 in0.0 mm
06:10 AM 61.0°F16.1°C 56.5°F13.6°C 85% 3.1 mph NNW5.0 kmh NNW 4.0 mph6.4 kmh 29.87 in1011.5 mb - 0.00 in0.0 mm 0.00 in0.0 mm
06:00 AM 61.1°F16.2°C 56.6°F13.7°C 85% 2.5 mph NNW4.0 kmh NNW 4.0 mph6.4 kmh 29.87 in1011.5 mb - 0.00 in0.0 mm 0.00 in0.0 mm
05:50 AM 61.2°F16.2°C 56.7°F13.7°C 85% 4.1 mph NNW6.6 kmh NNW 5.0 mph8.0 kmh 29.86 in1011.2 mb - 0.00 in0.0 mm 0.00 in0.0 mm
05:40 AM 61.2°F16.2°C 56.0°F13.3°C 83% 3.2 mph NNW5.1 kmh NNW 4.0 mph6.4 kmh 29.86 in1011.2 mb - 0.00 in0.0 mm 0.00 in0.0 mm
05:30 AM 61.1°F16.2°C 56.2°F13.4°C 84% 3.7 mph NNW6.0 kmh NNW 7.0 mph11.3 kmh 29.86 in1011.2 mb - 0.00 in0.0 mm 0.00 in0.0 mm
05:20 AM 61.1°F16.2°C 56.6°F13.7°C 85% 0.1 mph NNW0.2 kmh NNW -- 29.87 in1011.5 mb - 0.00 in0.0 mm 0.00 in0.0 mm
05:10 AM 60.9°F16.1°C 56.7°F13.7°C 86% Calm Calm -- 29.87 in1011.5 mb - 0.00 in0.0 mm 0.00 in0.0 mm
05:00 AM 60.8°F16.0°C 56.9°F13.8°C 87% Calm Calm -- 29.88 in1011.9 mb - 0.00 in0.0 mm 0.00 in0.0 mm
04:50 AM 60.8°F16.0°C 56.9°F13.8°C 87% 3.3 mph NNW5.3 kmh NNW 4.0 mph6.4 kmh 29.87 in1011.5 mb - 0.00 in0.0 mm 0.00 in0.0 mm
04:40 AM 60.8°F16.0°C 56.9°F13.8°C 87% 3.6 mph NNW5.8 kmh NNW 4.0 mph6.4 kmh 29.87 in1011.5 mb - 0.00 in0.0 mm 0.00 in0.0 mm
04:30 AM 60.8°F16.0°C 56.6°F13.7°C 86% 3.8 mph NNW6.1 kmh NNW 5.0 mph8.0 kmh 29.87 in1011.5 mb - 0.00 in0.0 mm 0.00 in0.0 mm
04:20 AM 60.7°F15.9°C 56.2°F13.4°C 85% 2.2 mph NNW3.5 kmh NNW 3.0 mph4.8 kmh 29.88 in1011.9 mb - 0.00 in0.0 mm 0.00 in0.0 mm
04:10 AM 60.2°F15.7°C 55.3°F12.9°C 84% 1.6 mph NNW2.6 kmh NNW 3.0 mph4.8 kmh 29.88 in1011.9 mb - 0.00 in0.0 mm 0.00 in0.0 mm
04:00 AM 59.9°F15.5°C 55.1°F12.8°C 84% 0.6 mph NNW1.0 kmh NNW 3.0 mph4.8 kmh 29.87 in1011.5 mb - 0.00 in0.0 mm 0.00 in0.0 mm
03:50 AM 59.6°F15.3°C 54.5°F12.5°C 83% 2.3 mph NNW3.7 kmh NNW 3.0 mph4.8 kmh 29.87 in1011.5 mb - 0.00 in0.0 mm 0.00 in0.0 mm
03:40 AM 59.7°F15.4°C 53.8°F12.1°C 81% 1.8 mph NNW2.9 kmh NNW 3.0 mph4.8 kmh 29.87 in1011.5 mb - 0.00 in0.0 mm 0.00 in0.0 mm
03:30 AM 60.0°F15.6°C 54.1°F12.3°C 81% 3.4 mph NNW5.5 kmh NNW 4.0 mph6.4 kmh 29.87 in1011.5 mb - 0.00 in0.0 mm 0.00 in0.0 mm
03:20 AM 59.9°F15.5°C 54.1°F12.3°C 81% 1.0 mph NNW1.6 kmh NNW 2.0 mph3.2 kmh 29.86 in1011.2 mb - 0.00 in0.0 mm 0.00 in0.0 mm
03:10 AM 60.0°F15.6°C 54.2°F12.3°C 81% 2.6 mph NNW4.2 kmh NNW 3.0 mph4.8 kmh 29.87 in1011.5 mb - 0.00 in0.0 mm 0.00 in0.0 mm
03:00 AM 59.8°F15.4°C 53.9°F12.2°C 81% 3.1 mph NNW5.0 kmh NNW 3.0 mph4.8 kmh 29.86 in1011.2 mb - 0.00 in0.0 mm 0.00 in0.0 mm
02:50 AM 59.5°F15.3°C 53.7°F12.1°C 81% 3.8 mph NNW6.1 kmh NNW 5.0 mph8.0 kmh 29.86 in1011.2 mb - 0.00 in0.0 mm 0.00 in0.0 mm
02:40 AM 59.5°F15.3°C 53.7°F12.1°C 81% 3.2 mph NNW5.1 kmh NNW 4.0 mph6.4 kmh 29.87 in1011.5 mb - 0.00 in0.0 mm 0.00 in0.0 mm
02:30 AM 59.6°F15.3°C 53.8°F12.1°C 81% 2.4 mph NNW3.9 kmh NNW 3.0 mph4.8 kmh 29.87 in1011.5 mb - 0.00 in0.0 mm 0.00 in0.0 mm
02:20 AM 59.7°F15.4°C 53.5°F11.9°C 80% 2.9 mph NNW4.7 kmh NNW 4.0 mph6.4 kmh 29.87 in1011.5 mb - 0.00 in0.0 mm 0.00 in0.0 mm
02:10 AM 59.6°F15.3°C 53.5°F11.9°C 80% 2.7 mph NNW4.3 kmh NNW 4.0 mph6.4 kmh 29.87 in1011.5 mb - 0.00 in0.0 mm 0.00 in0.0 mm
02:00 AM 60.0°F15.6°C 53.5°F11.9°C 79% 3.3 mph NNW5.3 kmh NNW 4.0 mph6.4 kmh 29.86 in1011.2 mb - 0.00 in0.0 mm 0.00 in0.0 mm
01:50 AM 60.5°F15.8°C 53.6°F12.0°C 78% 2.1 mph NNW3.4 kmh NNW 5.0 mph8.0 kmh 29.86 in1011.2 mb - 0.00 in0.0 mm 0.00 in0.0 mm
01:40 AM 60.6°F15.9°C 53.7°F12.1°C 78% 1.9 mph NNW3.1 kmh NNW 3.0 mph4.8 kmh 29.87 in1011.5 mb - 0.00 in0.0 mm 0.00 in0.0 mm
01:30 AM 60.7°F15.9°C 53.4°F11.9°C 77% 2.4 mph NNW3.9 kmh NNW 4.0 mph6.4 kmh 29.87 in1011.5 mb - 0.00 in0.0 mm 0.00 in0.0 mm
01:20 AM 61.1°F16.2°C 53.5°F11.9°C 76% 3.4 mph NNW5.5 kmh NNW 5.0 mph8.0 kmh 29.87 in1011.5 mb - 0.00 in0.0 mm 0.00 in0.0 mm
01:10 AM 61.1°F16.2°C 53.1°F11.7°C 75% 3.4 mph NNW5.5 kmh NNW 6.0 mph9.7 kmh 29.87 in1011.5 mb - 0.00 in0.0 mm 0.00 in0.0 mm
01:00 AM 60.9°F16.1°C 52.6°F11.4°C 74% 4.0 mph NNW6.4 kmh NNW 6.0 mph9.7 kmh 29.87 in1011.5 mb - 0.00 in0.0 mm 0.00 in0.0 mm
12:50 AM 60.2°F15.7°C 52.2°F11.2°C 75% 6.0 mph NW9.7 kmh NW 11.0 mph17.7 kmh 29.87 in1011.5 mb - 0.00 in0.0 mm 0.00 in0.0 mm
12:40 AM 59.8°F15.4°C 53.6°F12.0°C 80% 4.4 mph NW7.1 kmh NW 7.0 mph11.3 kmh 29.88 in1011.9 mb - 0.00 in0.0 mm 0.00 in0.0 mm
12:30 AM 59.7°F15.4°C 54.5°F12.5°C 83% 3.8 mph NW6.1 kmh NW 5.0 mph8.0 kmh 29.88 in1011.9 mb - 0.00 in0.0 mm 0.00 in0.0 mm
12:20 AM 59.9°F15.5°C 55.7°F13.2°C 86% 2.6 mph NW4.2 kmh NW 4.0 mph6.4 kmh 29.89 in1012.2 mb - 0.00 in0.0 mm 0.00 in0.0 mm
12:10 AM 60.2°F15.7°C 56.3°F13.5°C 87% 3.0 mph NW4.8 kmh NW 4.0 mph6.4 kmh 29.89 in1012.2 mb - 0.00 in0.0 mm 0.00 in0.0 mm
12:00 AM 60.5°F15.8°C 56.9°F13.8°C 88% 2.4 mph NW3.9 kmh NW 4.0 mph6.4 kmh 29.89 in1012.2 mb - 0.00 in0.0 mm 0.00 in0.0 mm